Time;durP1;ratioP1;P1;durP2;ratioP2;P2;SDS_P1;SDS_P2;PMS_P1;PMS_P2;Temp;Humidity;BMP_temperature;BMP_pressure;BME280_temperature;BME280_humidity;BME280_pressure;Samples;Min_cycle;Max_cycle;Signal;HPM_P1;HPM_P2
2023/01/28 00:01:49;;;;;;;4.70;3.43;;;-0.30;99.90;;;;;;10401352;28;20223;-80
2023/01/28 00:06:52;;;;;;;3.93;2.60;;;-0.30;99.90;;;;;;10372034;28;20235;-80
2023/01/28 00:11:55;;;;;;;4.97;2.90;;;-0.40;99.90;;;;;;10366825;28;20259;-80
2023/01/28 00:16:57;;;;;;;6.70;3.40;;;0.20;99.90;;;;;;10385978;28;20270;-81
2023/01/28 00:22:00;;;;;;;3.67;3.10;;;0.50;99.90;;;;;;10360946;28;20282;-80
2023/01/28 00:27:03;;;;;;;3.63;3.30;;;0.40;99.90;;;;;;10373574;28;20231;-80
2023/01/28 00:32:06;;;;;;;3.80;3.03;;;0.20;99.90;;;;;;10354501;28;20259;-80
2023/01/28 00:37:09;;;;;;;3.40;2.97;;;-0.20;99.90;;;;;;10372953;28;20669;-80
2023/01/28 00:42:11;;;;;;;4.33;3.03;;;-0.20;99.90;;;;;;10371233;28;20290;-80
2023/01/28 00:47:14;;;;;;;5.47;4.53;;;-0.10;99.90;;;;;;10370965;28;20228;-79
2023/01/28 00:52:16;;;;;;;4.07;3.27;;;0.40;99.90;;;;;;10370103;28;20263;-79
2023/01/28 00:57:19;;;;;;;4.67;3.17;;;-0.10;99.90;;;;;;10379390;28;20845;-80
2023/01/28 01:02:22;;;;;;;4.77;4.27;;;0.10;99.90;;;;;;10403194;28;20758;-79
2023/01/28 01:07:42;;;;;;;6.40;4.13;;;-0.20;99.90;;;;;;10370960;28;20587;-80
2023/01/28 01:12:46;;;;;;;5.77;3.77;;;-0.30;99.90;;;;;;10370906;28;20255;-80
2023/01/28 01:17:49;;;;;;;4.20;3.70;;;-0.20;99.90;;;;;;10370048;28;20228;-80
2023/01/28 01:22:52;;;;;;;5.03;3.83;;;-0.20;99.90;;;;;;10408514;28;20228;-80
2023/01/28 01:27:55;;;;;;;5.20;4.40;;;-0.10;99.90;;;;;;10418888;28;20236;-79
2023/01/28 01:32:59;;;;;;;3.83;3.07;;;-0.20;99.90;;;;;;10386054;28;20268;-80
2023/01/28 01:38:02;;;;;;;5.80;4.70;;;0.30;99.90;;;;;;10393912;28;20683;-80
2023/01/28 01:43:17;;;;;;;5.27;3.53;;;-0.40;99.90;;;;;;10411991;28;20285;-80
2023/01/28 01:48:34;;;;;;;4.57;4.13;;;-0.50;99.90;;;;;;10409989;28;20254;-80
2023/01/28 01:53:41;;;;;;;5.40;4.57;;;-0.30;99.90;;;;;;10378658;28;20228;-80
2023/01/28 01:58:48;;;;;;;3.97;3.57;;;0.50;99.90;;;;;;10388436;28;20322;-80
2023/01/28 02:04:04;;;;;;;6.17;4.33;;;0.00;99.90;;;;;;10384774;28;20262;-80
2023/01/28 02:09:30;;;;;;;4.90;4.03;;;;;;;;;;10391336;28;20634;-79
2023/01/28 02:14:36;;;;;;;6.23;4.73;;;0.20;99.90;;;;;;10386223;28;20232;-79
2023/01/28 02:19:45;;;;;;;6.50;5.23;;;-0.50;99.90;;;;;;10367384;28;20294;-80
2023/01/28 02:25:25;;;;;;;5.87;4.43;;;-0.60;99.90;;;;;;10390725;28;20255;-80
2023/01/28 02:30:33;;;;;;;8.53;4.87;;;-0.30;99.90;;;;;;10367715;28;20264;-79
2023/01/28 02:35:47;;;;;;;5.63;4.27;;;-0.40;99.90;;;;;;10365892;28;20204;-79
2023/01/28 02:41:02;;;;;;;5.80;4.90;;;-0.60;99.90;;;;;;10382887;28;20251;-79
2023/01/28 02:53:39;;;;;;;7.83;5.30;;;-0.40;99.90;;;;;;10420853;28;20283;-79
2023/01/28 02:57:59;;;;;;;5.53;4.97;;;-0.90;99.90;;;;;;10383002;28;20656;-79
2023/01/28 03:03:14;;;;;;;4.97;4.20;;;-1.00;99.90;;;;;;10365674;28;20223;-80
2023/01/28 03:41:09;;;;;;;4.90;3.80;;;0.20;99.90;;;;;;10383370;28;20294;-80
2023/01/28 03:46:13;;;;;;;3.83;3.33;;;0.40;99.90;;;;;;10363656;28;20237;-79
2023/01/28 03:51:16;;;;;;;4.50;3.80;;;0.50;99.90;;;;;;10371600;28;20263;-80
2023/01/28 03:56:23;;;;;;;4.70;3.63;;;0.30;99.90;;;;;;10404932;28;20263;-80
2023/01/28 04:01:27;;;;;;;5.07;3.63;;;0.00;99.90;;;;;;10374334;28;20240;-80
2023/01/28 04:06:29;;;;;;;5.97;4.23;;;0.10;99.90;;;;;;10373144;28;20223;-80
2023/01/28 04:11:49;;;;;;;4.10;3.60;;;-0.20;99.90;;;;;;10398247;28;21012;-80
2023/01/28 04:16:59;;;;;;;4.47;3.97;;;-0.20;99.90;;;;;;10380843;28;20247;-79
2023/01/28 04:22:10;;;;;;;3.57;3.27;;;0.00;99.90;;;;;;10387889;28;20258;-80
2023/01/28 04:27:14;;;;;;;5.33;3.53;;;-0.30;99.90;;;;;;10371129;28;20236;-79
2023/01/28 04:32:16;;;;;;;4.63;2.80;;;-0.60;99.90;;;;;;10370600;28;20251;-79
2023/01/28 04:37:42;;;;;;;5.90;4.30;;;-0.60;99.90;;;;;;10372787;28;20224;-80
2023/01/28 04:43:00;;;;;;;8.87;3.60;;;-1.00;99.90;;;;;;10372275;28;20640;-79
2023/01/28 04:48:10;;;;;;;3.93;3.33;;;-0.80;99.90;;;;;;10371034;28;20220;-80
2023/01/28 04:53:32;;;;;;;4.30;3.30;;;-0.60;99.90;;;;;;10371819;28;20306;-80
2023/01/28 04:58:41;;;;;;;5.33;3.97;;;-0.30;99.90;;;;;;10402019;28;20256;-79
2023/01/28 05:03:49;;;;;;;3.33;3.03;;;-0.20;99.90;;;;;;10369327;28;20227;-79
2023/01/28 05:09:02;;;;;;;5.50;3.77;;;-0.30;99.90;;;;;;10376893;28;20965;-80
2023/01/28 05:14:05;;;;;;;5.07;4.20;;;0.50;99.90;;;;;;10337465;28;20235;-81
2023/01/28 05:19:18;;;;;;;5.93;4.40;;;0.40;99.90;;;;;;10370757;28;20231;-81
2023/01/28 05:24:21;;;;;;;6.63;4.00;;;1.00;99.90;;;;;;10396919;28;20290;-79
2023/01/28 05:29:24;;;;;;;8.03;4.37;;;0.60;99.90;;;;;;10398423;28;20667;-80
2023/01/28 05:34:26;;;;;;;8.07;5.07;;;0.80;99.90;;;;;;10393984;28;20232;-80
2023/01/28 05:39:30;;;;;;;3.60;3.30;;;0.90;99.90;;;;;;10410011;28;20242;-80
2023/01/28 05:44:33;;;;;;;4.87;3.23;;;1.20;99.90;;;;;;10391954;28;20640;-80
2023/01/28 05:50:12;;;;;;;9.87;5.00;;;1.20;99.90;;;;;;10327698;28;20787;-80
2023/01/28 05:55:38;;;;;;;13.33;6.30;;;1.00;99.90;;;;;;10355769;28;20251;-80
2023/01/28 06:00:41;;;;;;;8.17;4.70;;;2.00;99.90;;;;;;10351115;28;20240;-80
2023/01/28 06:05:43;;;;;;;6.20;4.07;;;1.90;99.90;;;;;;10366684;28;20290;-80
2023/01/28 06:10:46;;;;;;;5.20;3.23;;;1.60;99.90;;;;;;10366249;28;20252;-80
2023/01/28 06:15:49;;;;;;;3.43;2.60;;;1.30;99.90;;;;;;10369033;28;20267;-80
2023/01/28 06:21:01;;;;;;;4.13;3.30;;;1.00;99.90;;;;;;10368042;28;20236;-80
2023/01/28 06:26:05;;;;;;;3.20;2.30;;;1.50;99.90;;;;;;10350609;28;20236;-80
2023/01/28 06:31:09;;;;;;;3.50;2.70;;;1.30;99.90;;;;;;10366731;28;20333;-80
2023/01/28 06:36:12;;;;;;;3.07;2.70;;;1.70;99.90;;;;;;10368168;28;20643;-79
2023/01/28 06:41:14;;;;;;;3.70;3.07;;;1.90;99.90;;;;;;10391509;28;20293;-80
2023/01/28 06:46:17;;;;;;;4.40;3.23;;;1.90;99.90;;;;;;10378756;28;20674;-80
2023/01/28 06:51:20;;;;;;;4.33;3.17;;;1.70;99.90;;;;;;10367872;28;20263;-80
2023/01/28 06:56:22;;;;;;;8.73;5.97;;;2.20;99.90;;;;;;10367243;28;20310;-80
2023/01/28 07:01:25;;;;;;;9.77;6.57;;;2.50;99.90;;;;;;10370341;28;20248;-80
2023/01/28 07:06:27;;;;;;;4.13;3.43;;;2.20;99.90;;;;;;10366093;28;20248;-80
2023/01/28 07:11:30;;;;;;;4.00;3.03;;;2.60;99.90;;;;;;10382458;28;20259;-80
2023/01/28 07:16:32;;;;;;;3.73;2.80;;;3.50;99.90;;;;;;10383362;28;20287;-80
2023/01/28 07:21:35;;;;;;;6.90;4.33;;;2.80;99.90;;;;;;10367244;28;20267;-80
2023/01/28 07:26:37;;;;;;;3.10;2.80;;;2.40;99.90;;;;;;10368033;28;20627;-81
2023/01/28 07:31:40;;;;;;;2.90;2.53;;;2.20;99.90;;;;;;10416324;28;20259;-81
2023/01/28 07:36:43;;;;;;;3.10;2.53;;;2.30;99.90;;;;;;10372261;28;20920;-81
2023/01/28 07:41:46;;;;;;;5.83;3.30;;;2.40;99.90;;;;;;10366750;28;20232;-81
2023/01/28 07:47:06;;;;;;;4.33;3.93;;;1.80;99.90;;;;;;10381061;28;20771;-80
2023/01/28 07:52:08;;;;;;;14.03;8.57;;;0.90;99.90;;;;;;10397602;28;21240;-80
2023/01/28 07:57:11;;;;;;;15.03;9.73;;;-0.20;99.90;;;;;;10364405;28;20260;-81
2023/01/28 08:02:14;;;;;;;15.87;9.03;;;-0.60;99.90;;;;;;10368113;28;20208;-81
2023/01/28 08:07:17;;;;;;;13.30;7.23;;;-0.70;99.90;;;;;;10370401;28;20576;-81
2023/01/28 08:12:19;;;;;;;9.93;6.00;;;-0.70;99.90;;;;;;10368601;28;20255;-80
2023/01/28 08:17:22;;;;;;;2.40;2.20;;;-0.80;99.90;;;;;;10370473;28;20598;-81
2023/01/28 08:22:25;;;;;;;3.50;2.50;;;-1.00;99.90;;;;;;10370113;28;20254;-79
2023/01/28 08:27:29;;;;;;;3.73;3.00;;;-0.80;99.90;;;;;;10368969;28;20292;-79
2023/01/28 08:32:32;;;;;;;4.63;3.80;;;-1.00;99.90;;;;;;10369637;28;20231;-79
2023/01/28 08:37:34;;;;;;;5.03;4.00;;;-0.90;99.90;;;;;;10377981;28;20196;-78
2023/01/28 08:42:37;;;;;;;8.67;5.23;;;-0.90;99.90;;;;;;10378547;28;20200;-79
2023/01/28 08:47:56;;;;;;;7.93;6.03;;;-0.90;99.90;;;;;;10386108;28;20212;-79
2023/01/28 08:53:05;;;;;;;8.80;6.73;;;-0.90;99.90;;;;;;10406460;28;20657;-79
2023/01/28 08:58:13;;;;;;;10.37;8.67;;;-0.90;99.90;;;;;;10377849;28;20588;-79
2023/01/28 09:03:16;;;;;;;6.63;4.53;;;-0.80;99.90;;;;;;10396364;28;20212;-80
2023/01/28 09:08:19;;;;;;;7.93;5.27;;;-0.70;99.90;;;;;;10363492;28;20561;-79
2023/01/28 09:13:22;;;;;;;6.63;4.30;;;-0.70;99.90;;;;;;10392620;28;20652;-80
2023/01/28 09:18:25;;;;;;;3.50;2.20;;;0.60;99.90;;;;;;10377560;28;20194;-87
2023/01/28 09:23:27;;;;;;;2.80;2.20;;;2.50;99.90;;;;;;10376198;28;20232;-85
2023/01/28 09:28:31;;;;;;;4.73;3.10;;;4.40;97.40;;;;;;10375213;28;20216;-86
2023/01/28 09:33:34;;;;;;;2.33;2.13;;;3.90;86.90;;;;;;10390571;28;20220;-86
2023/01/28 09:38:37;;;;;;;1.47;1.37;;;2.90;89.00;;;;;;10375869;28;20201;-86
2023/01/28 09:44:12;;;;;;;4.97;2.93;;;3.40;97.30;;;;;;10390150;28;20209;-86
2023/01/28 09:49:40;;;;;;;4.47;4.00;;;3.20;84.60;;;;;;10389562;28;20661;-86
2023/01/28 09:54:55;;;;;;;3.07;2.43;;;2.90;95.30;;;;;;10375009;28;20228;-86
2023/01/28 09:59:57;;;;;;;6.93;5.70;;;2.60;86.50;;;;;;10373594;28;20216;-86
2023/01/28 10:05:26;;;;;;;2.03;1.70;;;2.50;90.90;;;;;;10374360;28;20250;-86
2023/01/28 10:10:32;;;;;;;1.87;1.10;;;;;;;;;;10388666;28;20683;-86
2023/01/28 10:15:43;;;;;;;3.27;1.97;;;5.60;99.90;;;;;;10373905;28;20227;-86
2023/01/28 10:20:54;;;;;;;3.13;2.20;;;6.90;95.10;;;;;;10372258;28;20212;-86
2023/01/28 10:25:59;;;;;;;5.07;2.97;;;6.90;71.50;;;;;;10374058;28;20200;-87
2023/01/28 10:31:07;;;;;;;6.80;4.00;;;5.80;53.40;;;;;;10373165;28;20232;-87
2023/01/28 10:36:10;;;;;;;5.17;3.13;;;4.80;64.80;;;;;;10374025;28;20208;-86
2023/01/28 10:41:19;;;;;;;3.47;3.17;;;4.10;66.00;;;;;;10373500;28;20231;-87
2023/01/28 10:46:32;;;;;;;7.43;3.40;;;3.60;75.00;;;;;;10371489;28;20216;-87
2023/01/28 10:51:37;;;;;;;6.37;5.03;;;3.30;93.30;;;;;;10372632;28;20278;-87
2023/01/28 10:56:42;;;;;;;4.47;3.70;;;2.90;84.60;;;;;;10370436;28;20286;-87
2023/01/28 11:01:48;;;;;;;7.10;5.93;;;2.40;92.90;;;;;;10372650;28;20192;-87
2023/01/28 11:06:52;;;;;;;5.97;5.30;;;2.20;94.90;;;;;;10403806;28;20208;-87
2023/01/28 11:11:56;;;;;;;7.30;4.97;;;2.50;99.90;;;;;;10371760;28;20223;-87
2023/01/28 11:16:58;;;;;;;4.20;3.23;;;2.50;99.90;;;;;;10372156;28;20255;-87
2023/01/28 11:22:02;;;;;;;5.30;4.03;;;3.30;99.60;;;;;;10372104;28;20669;-87
2023/01/28 11:27:15;;;;;;;5.97;3.97;;;3.20;96.70;;;;;;10371732;28;20207;-87
2023/01/28 11:32:19;;;;;;;4.57;3.73;;;2.80;95.20;;;;;;10371789;28;20254;-87
2023/01/28 11:37:24;;;;;;;3.90;3.53;;;2.80;99.90;;;;;;10386576;28;20204;-87
2023/01/28 11:42:27;;;;;;;3.63;3.10;;;2.80;98.40;;;;;;10370374;28;20548;-86
2023/01/28 11:47:41;;;;;;;3.10;2.80;;;2.50;96.50;;;;;;10386754;28;20258;-86
2023/01/28 11:53:03;;;;;;;6.80;5.33;;;3.00;99.90;;;;;;10370998;28;20219;-86
2023/01/28 11:58:37;;;;;;;3.90;2.77;;;3.40;94.70;;;;;;10385610;28;20224;-86
2023/01/28 12:03:58;;;;;;;6.40;3.63;;;4.00;99.90;;;;;;10386154;28;20227;-86
2023/01/28 12:09:20;;;;;;;6.30;5.10;;;4.70;99.00;;;;;;10373740;28;20204;-86
2023/01/28 12:14:43;;;;;;;5.47;4.87;;;3.10;90.30;;;;;;10378706;28;20224;-86
2023/01/28 12:20:09;;;;;;;4.63;3.67;;;3.00;96.80;;;;;;10394037;28;20208;-86
2023/01/28 12:25:24;;;;;;;13.23;10.80;;;3.20;99.90;;;;;;10378558;28;20271;-86
2023/01/28 12:30:59;;;;;;;12.60;8.30;;;3.00;99.70;;;;;;10393798;28;20250;-86
2023/01/28 12:36:20;;;;;;;2.37;2.03;;;2.60;96.20;;;;;;10360179;28;20208;-86
2023/01/28 12:41:35;;;;;;;1.43;1.33;;;2.50;92.20;;;;;;10377841;28;20204;-86
2023/01/28 12:46:59;;;;;;;2.30;1.50;;;2.90;96.30;;;;;;10377898;28;20197;-86
2023/01/28 12:52:10;;;;;;;6.67;4.13;;;2.90;99.90;;;;;;10392655;28;20279;-86
2023/01/28 12:57:24;;;;;;;8.87;5.40;;;2.80;99.30;;;;;;10376882;28;20248;-87
2023/01/28 13:02:33;;;;;;;4.37;3.27;;;2.70;97.60;;;;;;10392054;28;20566;-86
2023/01/28 13:07:52;;;;;;;9.70;7.07;;;2.10;94.80;;;;;;10392272;28;20208;-86
2023/01/28 13:12:56;;;;;;;6.43;4.27;;;2.40;98.60;;;;;;10376545;28;20246;-86
2023/01/28 13:18:01;;;;;;;8.73;5.07;;;2.20;99.90;;;;;;10376614;28;20632;-86
2023/01/28 13:23:05;;;;;;;3.30;3.00;;;;;;;;;;10374853;28;20204;-86
2023/01/28 13:28:28;;;;;;;7.80;3.50;;;1.50;96.90;;;;;;10391221;28;20740;-86
2023/01/28 13:33:34;;;;;;;6.40;2.10;;;1.80;99.90;;;;;;10375552;28;20223;-87
2023/01/28 13:38:38;;;;;;;2.27;2.03;;;1.50;98.20;;;;;;10390610;28;20196;-86
2023/01/28 13:43:41;;;;;;;3.00;2.80;;;1.10;99.90;;;;;;10375044;28;20216;-86
2023/01/28 13:48:53;;;;;;;3.20;2.20;;;0.30;96.80;;;;;;10375444;28;20681;-86
2023/01/28 13:54:02;;;;;;;5.80;2.93;;;0.20;98.40;;;;;;10374915;28;20290;-86
2023/01/28 13:59:36;;;;;;;4.27;3.00;;;0.60;98.50;;;;;;10373305;28;20628;-86
2023/01/28 14:04:57;;;;;;;6.27;4.57;;;0.90;99.90;;;;;;10389994;28;20235;-86
2023/01/28 14:10:33;;;;;;;15.03;7.67;;;0.90;99.90;;;;;;10389387;28;20259;-86
2023/01/28 14:15:50;;;;;;;5.50;4.23;;;1.10;99.90;;;;;;10374326;28;20291;-86
2023/01/28 14:20:55;;;;;;;4.57;3.10;;;1.30;99.90;;;;;;10374543;28;20609;-86
2023/01/28 14:26:08;;;;;;;2.67;2.33;;;1.40;99.90;;;;;;10373723;28;20259;-86
2023/01/28 14:31:27;;;;;;;5.90;3.00;;;1.50;99.90;;;;;;10373671;28;20434;-86
2023/01/28 14:36:30;;;;;;;6.20;4.33;;;1.50;99.90;;;;;;10373900;28;20188;-86
2023/01/28 14:41:33;;;;;;;4.53;3.30;;;;;;;;;;10373420;28;20196;-86
2023/01/28 14:46:49;;;;;;;3.53;3.23;;;1.80;99.40;;;;;;10371534;28;20589;-86
2023/01/28 14:52:21;;;;;;;3.93;3.30;;;1.50;98.70;;;;;;10373093;28;20347;-86
2023/01/28 14:57:39;;;;;;;4.70;3.70;;;1.60;99.90;;;;;;10387779;28;20247;-86
2023/01/28 15:02:43;;;;;;;7.23;4.27;;;;;;;;;;10387404;28;20266;-86
2023/01/28 15:07:47;;;;;;;5.93;5.27;;;1.40;99.90;;;;;;10372416;28;20206;-86
2023/01/28 15:12:57;;;;;;;6.23;4.07;;;1.20;98.30;;;;;;10387003;28;20589;-86
2023/01/28 15:18:18;;;;;;;7.97;4.87;;;1.30;99.90;;;;;;10387222;28;20200;-86
2023/01/28 15:23:42;;;;;;;8.00;5.33;;;1.20;99.90;;;;;;10372175;28;20204;-86
2023/01/28 15:28:45;;;;;;;18.03;9.70;;;2.10;99.90;;;;;;10386617;28;20624;-87
2023/01/28 15:34:16;;;;;;;19.50;11.90;;;2.40;98.40;;;;;;10371899;28;20220;-86
2023/01/28 15:39:22;;;;;;;23.20;12.23;;;1.50;98.40;;;;;;10352063;28;20554;-87
2023/01/28 15:44:32;;;;;;;21.50;10.10;;;1.20;99.20;;;;;;10371085;28;20259;-86
2023/01/28 15:49:40;;;;;;;24.73;14.93;;;2.10;99.90;;;;;;10386550;28;20212;-87
2023/01/28 15:54:47;;;;;;;26.80;15.60;;;1.50;99.10;;;;;;10386088;28;20241;-87
2023/01/28 15:59:50;;;;;;;25.83;14.57;;;1.10;99.00;;;;;;10370744;28;20205;-87
2023/01/28 16:04:56;;;;;;;28.30;15.17;;;1.00;99.90;;;;;;10371384;28;20260;-87
2023/01/28 16:10:02;;;;;;;26.67;16.77;;;1.80;99.90;;;;;;10371343;28;20267;-87
2023/01/28 16:15:06;;;;;;;31.20;16.60;;;2.10;99.90;;;;;;10369378;28;20221;-87
2023/01/28 16:20:18;;;;;;;23.37;11.93;;;1.60;99.90;;;;;;10370697;28;20206;-87
2023/01/28 16:25:21;;;;;;;11.27;6.53;;;;;;;;;;10370736;28;20564;-87
2023/01/28 16:30:24;;;;;;;20.57;12.27;;;4.40;99.90;;;;;;10370709;28;20213;-87
2023/01/28 16:35:29;;;;;;;21.80;11.47;;;3.70;99.90;;;;;;10370278;28;20564;-87
2023/01/28 16:40:51;;;;;;;23.67;13.70;;;3.50;99.90;;;;;;10382318;28;20551;-87
2023/01/28 16:45:54;;;;;;;29.30;16.20;;;3.50;99.90;;;;;;10367939;28;20702;-87
2023/01/28 16:50:57;;;;;;;28.73;16.07;;;3.80;99.90;;;;;;10369789;28;20208;-87
2023/01/28 16:55:59;;;;;;;18.97;11.03;;;3.60;90.90;;;;;;10371075;28;20231;-87
2023/01/28 17:01:02;;;;;;;17.33;10.73;;;3.20;99.90;;;;;;10377169;28;20209;-87
2023/01/28 17:06:06;;;;;;;15.47;10.23;;;5.20;99.90;;;;;;10376745;28;20569;-87
2023/01/28 17:11:09;;;;;;;16.13;9.20;;;5.60;99.90;;;;;;10392368;28;20201;-87
2023/01/28 17:16:12;;;;;;;12.67;7.30;;;6.00;99.90;;;;;;10376509;28;20226;-87
2023/01/28 17:21:14;;;;;;;20.13;11.57;;;6.20;99.90;;;;;;10391455;28;20234;-87
2023/01/28 17:26:17;;;;;;;13.30;7.97;;;6.30;99.90;;;;;;10391606;28;20196;-87
2023/01/28 17:31:20;;;;;;;12.93;7.63;;;5.80;98.50;;;;;;10375542;28;20279;-87
2023/01/28 17:36:24;;;;;;;24.07;14.00;;;5.20;99.90;;;;;;10375755;28;20637;-87
2023/01/28 17:41:27;;;;;;;14.57;7.73;;;4.70;97.80;;;;;;10375792;28;20673;-87
2023/01/28 17:46:30;;;;;;;19.00;10.80;;;5.10;99.90;;;;;;10390743;28;20218;-87
2023/01/28 17:51:33;;;;;;;20.13;12.07;;;5.80;99.90;;;;;;10375367;28;20558;-87
2023/01/28 17:56:37;;;;;;;26.93;14.40;;;5.40;99.90;;;;;;10390057;28;20596;-87
2023/01/28 18:01:39;;;;;;;30.43;17.23;;;5.00;99.90;;;;;;10389964;28;20559;-87
2023/01/28 18:06:42;;;;;;;29.83;15.60;;;4.70;99.80;;;;;;10356577;28;20247;-87
2023/01/28 18:11:44;;;;;;;39.07;21.23;;;5.30;99.90;;;;;;10373258;28;20746;-87
2023/01/28 18:16:47;;;;;;;21.37;11.97;;;4.70;97.30;;;;;;10373832;28;20221;-87
2023/01/28 18:21:50;;;;;;;30.67;15.83;;;5.30;99.90;;;;;;10374178;28;20184;-87
2023/01/28 18:26:59;;;;;;;11.43;6.30;;;5.70;99.00;;;;;;10388898;28;20198;-87
2023/01/28 18:32:03;;;;;;;13.83;9.20;;;6.20;99.90;;;;;;10373691;28;20640;-87
2023/01/28 18:37:07;;;;;;;12.73;8.20;;;6.30;99.90;;;;;;10388910;28;20193;-86
2023/01/28 18:42:10;;;;;;;11.67;7.83;;;6.50;99.90;;;;;;10373486;28;20203;-87
2023/01/28 18:47:12;;;;;;;14.13;8.10;;;6.40;99.90;;;;;;10388494;28;20239;-87
2023/01/28 18:52:15;;;;;;;15.47;8.83;;;7.00;99.90;;;;;;10372914;28;20233;-87
2023/01/28 18:57:18;;;;;;;13.27;9.93;;;7.10;99.90;;;;;;10371263;28;20232;-86
2023/01/28 19:02:21;;;;;;;15.23;8.60;;;7.60;99.90;;;;;;10371094;28;20747;-87
2023/01/28 19:07:24;;;;;;;20.27;11.27;;;6.90;99.90;;;;;;10387669;28;20209;-87
2023/01/28 19:12:27;;;;;;;22.27;11.53;;;5.90;98.40;;;;;;10387405;28;20225;-86
2023/01/28 19:17:29;;;;;;;30.87;18.40;;;5.80;98.50;;;;;;10371261;28;20204;-86
2023/01/28 19:22:32;;;;;;;23.63;15.27;;;4.70;95.20;;;;;;10372191;28;20236;-87
2023/01/28 19:27:35;;;;;;;24.23;15.13;;;4.40;99.60;;;;;;10370468;28;20686;-86
2023/01/28 19:32:38;;;;;;;25.03;15.70;;;3.90;99.90;;;;;;10370655;28;20687;-87
2023/01/28 19:37:41;;;;;;;31.10;17.57;;;4.90;99.90;;;;;;10386114;28;20269;-86
2023/01/28 19:42:44;;;;;;;22.93;13.13;;;4.50;96.60;;;;;;10371515;28;20207;-86
2023/01/28 19:47:47;;;;;;;20.90;12.20;;;4.50;99.90;;;;;;10386401;28;20209;-86
2023/01/28 19:52:50;;;;;;;28.23;15.73;;;5.40;99.90;;;;;;10371638;28;20223;-86
2023/01/28 19:57:53;;;;;;;18.50;11.53;;;5.50;99.90;;;;;;10371387;28;20295;-86
2023/01/28 20:02:56;;;;;;;21.57;12.57;;;5.20;99.90;;;;;;10371493;28;20199;-86
2023/01/28 20:07:59;;;;;;;28.50;13.80;;;5.80;99.90;;;;;;10385434;28;20277;-87
2023/01/28 20:13:04;;;;;;;34.47;20.40;;;6.20;99.90;;;;;;10371121;28;20234;-86
2023/01/28 20:18:07;;;;;;;31.17;18.50;;;6.00;99.00;;;;;;10369581;28;20206;-87
2023/01/28 20:23:09;;;;;;;24.87;14.90;;;6.40;99.90;;;;;;10370934;28;20229;-87
2023/01/28 20:28:12;;;;;;;30.67;17.90;;;6.10;99.90;;;;;;10369502;28;20215;-87
2023/01/28 20:33:15;;;;;;;29.23;16.53;;;6.30;99.90;;;;;;10378145;28;20229;-86
2023/01/28 20:38:19;;;;;;;22.27;13.10;;;6.20;99.90;;;;;;10393588;28;20620;-87
2023/01/28 20:43:22;;;;;;;28.10;16.57;;;6.20;99.90;;;;;;10376442;28;20266;-87
2023/01/28 20:48:26;;;;;;;24.23;15.47;;;6.20;99.90;;;;;;10378165;28;20211;-86
2023/01/28 20:53:28;;;;;;;37.93;22.33;;;5.90;99.90;;;;;;10378065;28;20243;-86
2023/01/28 20:58:32;;;;;;;19.87;11.43;;;5.80;99.90;;;;;;10377412;28;20260;-86
2023/01/28 21:03:34;;;;;;;32.03;19.60;;;6.20;99.90;;;;;;10392757;28;20231;-86
2023/01/28 21:08:37;;;;;;;19.90;12.20;;;5.60;99.90;;;;;;10392257;28;20751;-86
2023/01/28 21:13:40;;;;;;;28.33;16.07;;;6.60;99.90;;;;;;10391517;28;20216;-86
2023/01/28 21:18:42;;;;;;;26.80;13.90;;;6.60;99.90;;;;;;10392102;28;20188;-86
2023/01/28 21:23:46;;;;;;;28.13;15.37;;;6.30;99.90;;;;;;10391824;28;20269;-86
2023/01/28 21:28:49;;;;;;;21.57;13.67;;;7.20;99.90;;;;;;10376574;28;20256;-86
2023/01/28 21:33:54;;;;;;;22.67;13.63;;;7.00;99.90;;;;;;10391419;28;20230;-85
2023/01/28 21:38:59;;;;;;;21.60;13.40;;;7.00;99.90;;;;;;10376420;28;20244;-86
2023/01/28 21:44:02;;;;;;;32.20;18.70;;;7.30;99.90;;;;;;10374788;28;20241;-86
2023/01/28 21:49:04;;;;;;;21.40;12.47;;;7.20;98.00;;;;;;10374356;28;20284;-86
2023/01/28 21:54:14;;;;;;;35.00;17.73;;;7.30;99.90;;;;;;10373809;28;20285;-86
2023/01/28 21:59:27;;;;;;;26.03;14.43;;;6.80;99.60;;;;;;10374829;28;20275;-86
2023/01/28 22:04:32;;;;;;;28.40;15.83;;;6.70;99.90;;;;;;10375022;28;20210;-86
2023/01/28 22:09:35;;;;;;;29.50;14.77;;;7.20;99.80;;;;;;10389869;28;20201;-86
2023/01/28 22:14:38;;;;;;;22.07;11.50;;;7.10;99.90;;;;;;10374454;28;20226;-86
2023/01/28 22:19:46;;;;;;;14.57;9.10;;;7.50;99.90;;;;;;10374820;28;20557;-86
2023/01/28 22:24:49;;;;;;;19.13;12.03;;;7.50;99.90;;;;;;10374187;28;20210;-86
2023/01/28 22:29:52;;;;;;;23.43;14.00;;;8.00;99.90;;;;;;10374051;28;20209;-85
2023/01/28 22:34:55;;;;;;;19.87;10.37;;;7.70;97.40;;;;;;10373970;28;20273;-86
2023/01/28 22:39:57;;;;;;;18.70;11.57;;;7.50;99.90;;;;;;10373219;28;20275;-86
2023/01/28 22:45:00;;;;;;;15.50;10.27;;;8.20;99.90;;;;;;10388889;28;20206;-86
2023/01/28 22:50:03;;;;;;;11.50;7.30;;;7.50;99.90;;;;;;10373497;28;20229;-86
2023/01/28 22:55:06;;;;;;;15.27;9.53;;;7.70;99.90;;;;;;10388320;28;20236;-86
2023/01/28 23:00:12;;;;;;;17.37;9.97;;;7.50;99.90;;;;;;10373025;28;20189;-86
2023/01/28 23:05:15;;;;;;;11.80;6.27;;;7.40;99.10;;;;;;10373218;28;20227;-86
2023/01/28 23:10:18;;;;;;;10.80;6.80;;;8.00;99.90;;;;;;10387967;28;20578;-85
2023/01/28 23:26:04;;;;;;;10.43;6.93;;;8.50;99.90;;;;;;10372400;28;20197;-85
2023/01/28 23:31:08;;;;;;;12.57;7.87;;;8.80;99.90;;;;;;10371606;28;20214;-85
2023/01/28 23:36:11;;;;;;;14.30;8.27;;;8.50;98.30;;;;;;10372041;28;20222;-85
2023/01/28 23:41:14;;;;;;;11.07;7.13;;;8.00;94.90;;;;;;10386817;28;20206;-86
2023/01/28 23:46:16;;;;;;;9.73;6.90;;;7.40;99.90;;;;;;10372020;28;20210;-86
2023/01/28 23:51:23;;;;;;;9.20;6.03;;;7.10;99.90;;;;;;10386307;28;20205;-85
2023/01/28 23:56:26;;;;;;;10.13;6.53;;;8.40;99.90;;;;;;10385881;28;20269;-85
